Time;durP1;ratioP1;P1;durP2;ratioP2;P2;SDS_P1;SDS_P2;PMS_P1;PMS_P2;Temp;Humidity;BMP_temperature;BMP_pressure;BME280_temperature;BME280_humidity;BME280_pressure;Samples;Min_cycle;Max_cycle;Signal;HPM_P1;HPM_P2
2024/02/19 00:02:17;;;;;;;1.00;0.88;;;14.00;98.40;;;;;;5012109;28;20053;-45
2024/02/19 00:04:43;;;;;;;1.30;0.75;;;14.00;98.40;;;;;;5013301;28;20030;-45
2024/02/19 00:07:08;;;;;;;1.00;0.70;;;14.00;98.40;;;;;;5013340;28;20507;-46
2024/02/19 00:09:34;;;;;;;0.90;0.60;;;14.00;98.40;;;;;;5013189;28;20056;-45
2024/02/19 00:12:00;;;;;;;0.95;0.70;;;14.00;98.50;;;;;;5013277;28;20022;-45
2024/02/19 00:14:25;;;;;;;1.20;0.60;;;14.00;98.50;;;;;;5012916;28;20495;-45
2024/02/19 00:16:53;;;;;;;0.80;0.63;;;13.90;98.50;;;;;;5012434;28;20041;-46
2024/02/19 00:19:19;;;;;;;1.00;0.60;;;13.90;98.60;;;;;;5013011;28;20084;-46
2024/02/19 00:21:44;;;;;;;0.90;0.60;;;13.90;98.60;;;;;;5013092;28;20054;-45
2024/02/19 00:24:10;;;;;;;0.88;0.68;;;13.90;98.60;;;;;;5013054;28;20488;-45
2024/02/19 00:26:36;;;;;;;0.82;0.60;;;13.90;98.60;;;;;;5012746;28;20034;-45
2024/02/19 00:29:02;;;;;;;0.80;0.65;;;13.90;98.70;;;;;;5012631;28;20111;-46
2024/02/19 00:31:28;;;;;;;0.75;0.50;;;13.80;98.70;;;;;;5013186;28;20053;-44
2024/02/19 00:33:54;;;;;;;3.38;1.17;;;13.80;98.70;;;;;;5012838;28;20032;-45
2024/02/19 00:36:19;;;;;;;1.38;0.60;;;13.80;98.70;;;;;;5012748;28;20036;-46
2024/02/19 00:38:45;;;;;;;0.93;0.68;;;13.80;98.80;;;;;;5028075;28;20076;-46
2024/02/19 00:41:11;;;;;;;0.70;0.50;;;13.80;98.80;;;;;;5012785;28;20033;-45
2024/02/19 00:43:37;;;;;;;0.65;0.50;;;13.80;98.80;;;;;;5012557;28;20106;-46
2024/02/19 00:46:03;;;;;;;0.93;0.70;;;13.80;98.80;;;;;;5012680;28;20380;-46
2024/02/19 00:48:28;;;;;;;0.70;0.57;;;13.80;98.90;;;;;;5012474;28;20044;-45
2024/02/19 00:50:54;;;;;;;0.80;0.65;;;13.70;98.90;;;;;;5012648;28;20022;-45
2024/02/19 00:53:20;;;;;;;0.60;0.50;;;13.70;98.90;;;;;;5012128;28;20424;-45
2024/02/19 00:55:45;;;;;;;0.75;0.50;;;13.70;98.90;;;;;;5012464;28;20021;-46
2024/02/19 00:58:11;;;;;;;0.80;0.50;;;13.70;98.90;;;;;;5012233;28;20109;-45
2024/02/19 01:00:37;;;;;;;1.30;0.57;;;13.70;99.00;;;;;;5012333;28;20030;-45
2024/02/19 01:03:03;;;;;;;0.73;0.40;;;13.70;99.00;;;;;;5012339;28;20076;-46
2024/02/19 01:05:31;;;;;;;0.98;0.60;;;13.70;99.00;;;;;;5012440;28;20109;-45
2024/02/19 01:07:57;;;;;;;0.60;0.50;;;13.60;99.00;;;;;;5012250;28;20445;-44
2024/02/19 01:10:23;;;;;;;0.60;0.50;;;13.70;99.00;;;;;;5012076;28;20072;-45
2024/02/19 01:12:49;;;;;;;0.50;0.32;;;13.70;99.10;;;;;;5012374;28;20053;-44
2024/02/19 01:15:16;;;;;;;0.60;0.50;;;13.70;99.10;;;;;;5012138;28;20037;-44
2024/02/19 01:17:42;;;;;;;0.68;0.40;;;13.60;99.10;;;;;;5012081;28;20014;-44
2024/02/19 01:20:09;;;;;;;0.65;0.50;;;13.60;99.10;;;;;;5012016;28;20030;-44
2024/02/19 01:22:35;;;;;;;0.70;0.50;;;13.60;99.20;;;;;;5012058;28;20026;-44
2024/02/19 01:25:01;;;;;;;0.77;0.40;;;13.70;99.20;;;;;;5011788;28;20570;-46
2024/02/19 01:27:26;;;;;;;0.95;0.50;;;13.60;99.20;;;;;;5011699;28;20032;-45
2024/02/19 01:29:52;;;;;;;0.65;0.50;;;13.60;99.20;;;;;;5011726;28;20112;-45
2024/02/19 01:32:17;;;;;;;0.60;0.43;;;13.60;99.30;;;;;;5012044;28;20018;-46
2024/02/19 01:34:43;;;;;;;0.40;0.40;;;13.60;99.30;;;;;;5011732;28;20025;-45
2024/02/19 01:37:09;;;;;;;0.65;0.40;;;13.60;99.30;;;;;;5011857;28;20034;-46
2024/02/19 01:39:34;;;;;;;0.70;0.43;;;13.60;99.30;;;;;;5011855;28;20026;-45
2024/02/19 01:42:00;;;;;;;0.35;0.30;;;13.60;99.70;;;;;;5011923;28;20040;-45
2024/02/19 01:44:26;;;;;;;0.70;0.40;;;13.50;99.30;;;;;;5012139;28;20095;-45
2024/02/19 01:46:51;;;;;;;0.43;0.38;;;13.50;99.40;;;;;;5012075;28;20071;-45
2024/02/19 01:49:19;;;;;;;0.40;0.40;;;13.50;99.40;;;;;;5011993;28;20395;-47
2024/02/19 01:51:45;;;;;;;1.30;0.50;;;13.50;99.40;;;;;;5012174;28;20025;-46
2024/02/19 01:54:12;;;;;;;0.80;0.50;;;13.50;99.40;;;;;;5012201;28;20030;-46
2024/02/19 01:56:39;;;;;;;0.47;0.30;;;13.50;99.40;;;;;;5011969;28;20030;-46
2024/02/19 01:59:06;;;;;;;0.50;0.40;;;13.50;99.50;;;;;;5011847;28;20026;-46
2024/02/19 02:01:34;;;;;;;0.65;0.40;;;13.50;99.50;;;;;;5011722;28;20029;-46
2024/02/19 02:04:00;;;;;;;0.38;0.30;;;13.50;99.50;;;;;;5011672;28;20079;-45
2024/02/19 02:06:26;;;;;;;0.55;0.45;;;13.50;99.50;;;;;;5011487;28;20030;-46
2024/02/19 02:08:51;;;;;;;0.50;0.40;;;13.50;99.50;;;;;;5011340;28;20411;-46
2024/02/19 02:11:17;;;;;;;0.98;0.47;;;13.40;99.50;;;;;;5011322;28;20022;-45
2024/02/19 02:13:43;;;;;;;0.52;0.40;;;13.40;99.50;;;;;;5011511;28;20227;-45
2024/02/19 02:16:09;;;;;;;0.75;0.30;;;13.40;99.50;;;;;;5011391;28;20030;-46
2024/02/19 02:18:35;;;;;;;0.57;0.47;;;13.40;99.60;;;;;;5011405;28;20029;-46
2024/02/19 02:21:01;;;;;;;0.63;0.43;;;13.40;99.60;;;;;;5011333;28;20515;-45
2024/02/19 02:23:29;;;;;;;0.50;0.40;;;13.40;99.60;;;;;;5011337;28;20022;-45
2024/02/19 02:25:54;;;;;;;0.60;0.40;;;13.40;99.60;;;;;;5010989;28;20044;-45
2024/02/19 02:28:21;;;;;;;0.43;0.30;;;13.40;99.60;;;;;;5011110;28;20034;-46
2024/02/19 02:30:48;;;;;;;0.82;0.50;;;13.40;99.70;;;;;;5011349;28;20470;-46
2024/02/19 02:33:14;;;;;;;0.68;0.50;;;13.40;99.70;;;;;;5011313;28;20025;-45
2024/02/19 02:35:40;;;;;;;0.30;0.20;;;13.30;99.70;;;;;;5011154;28;20431;-46
2024/02/19 02:38:06;;;;;;;0.63;0.40;;;13.30;99.70;;;;;;5011368;28;20033;-45
2024/02/19 02:40:31;;;;;;;0.30;0.30;;;13.30;99.70;;;;;;5014806;28;20390;-46
2024/02/19 02:42:57;;;;;;;0.35;0.30;;;13.40;99.80;;;;;;5015019;28;20088;-45
2024/02/19 02:45:23;;;;;;;1.17;0.30;;;13.40;99.80;;;;;;5014872;28;20030;-46
2024/02/19 02:47:48;;;;;;;0.47;0.30;;;13.40;99.80;;;;;;5014896;28;20029;-46
2024/02/19 02:50:14;;;;;;;0.20;0.20;;;13.30;99.80;;;;;;5014822;28;20109;-46
2024/02/19 02:52:39;;;;;;;0.95;0.30;;;13.30;99.80;;;;;;5014841;28;20424;-45
2024/02/19 02:55:06;;;;;;;0.20;0.20;;;13.30;99.80;;;;;;5014505;28;20030;-46
2024/02/19 02:57:31;;;;;;;0.50;0.40;;;13.30;99.90;;;;;;5014918;28;20030;-46
2024/02/19 02:59:57;;;;;;;2.28;0.47;;;13.30;99.80;;;;;;5014498;28;20070;-45
2024/02/19 03:02:22;;;;;;;0.50;0.40;;;13.30;99.90;;;;;;5014607;28;20041;-45
2024/02/19 03:04:48;;;;;;;0.70;0.30;;;13.30;99.90;;;;;;5014876;28;20112;-46
2024/02/19 03:07:13;;;;;;;0.32;0.25;;;13.30;99.90;;;;;;5014506;28;20030;-45
2024/02/19 03:09:39;;;;;;;0.38;0.30;;;13.30;99.90;;;;;;5014293;28;20026;-45
2024/02/19 03:12:05;;;;;;;0.63;0.50;;;13.30;99.90;;;;;;5014408;28;20100;-45
2024/02/19 03:14:31;;;;;;;0.40;0.20;;;13.20;99.90;;;;;;5014370;28;20049;-46
2024/02/19 03:16:57;;;;;;;0.65;0.35;;;13.30;99.90;;;;;;5014251;28;20444;-45
2024/02/19 03:19:22;;;;;;;0.22;0.22;;;13.30;99.90;;;;;;5014303;28;20025;-45
2024/02/19 03:21:48;;;;;;;0.40;0.30;;;13.30;99.90;;;;;;5014521;28;20029;-45
2024/02/19 03:24:14;;;;;;;0.30;0.30;;;13.20;99.90;;;;;;5012650;28;20065;-45
2024/02/19 03:26:41;;;;;;;0.80;0.40;;;13.20;99.90;;;;;;5014015;28;20037;-47
2024/02/19 03:29:12;;;;;;;0.40;0.40;;;13.20;99.90;;;;;;5013981;28;20041;-45
2024/02/19 03:31:41;;;;;;;0.38;0.30;;;13.20;99.90;;;;;;5014132;28;20065;-46
2024/02/19 03:34:07;;;;;;;0.30;0.30;;;13.20;99.90;;;;;;5014041;28;20075;-45
2024/02/19 03:36:33;;;;;;;0.90;0.40;;;13.20;99.90;;;;;;5013916;28;20054;-46
2024/02/19 03:38:59;;;;;;;0.57;0.40;;;13.20;99.90;;;;;;5014157;28;20429;-46
2024/02/19 03:41:24;;;;;;;0.40;0.20;;;13.20;99.90;;;;;;5014209;28;20022;-46
2024/02/19 03:43:50;;;;;;;0.40;0.30;;;13.20;99.90;;;;;;5014041;28;20026;-46
2024/02/19 03:46:16;;;;;;;0.32;0.30;;;13.20;99.90;;;;;;5013700;28;20038;-46
2024/02/19 03:48:42;;;;;;;0.88;0.30;;;13.20;99.90;;;;;;5013623;28;20029;-46
2024/02/19 03:51:10;;;;;;;0.68;0.20;;;13.20;99.90;;;;;;5012542;28;20116;-46
2024/02/19 03:53:36;;;;;;;0.28;0.22;;;13.20;99.90;;;;;;5013568;28;20022;-46
2024/02/19 03:56:02;;;;;;;0.28;0.20;;;13.20;99.90;;;;;;5013475;28;20427;-46
2024/02/19 03:58:27;;;;;;;0.40;0.30;;;13.10;99.90;;;;;;5013685;28;20080;-46
2024/02/19 04:00:53;;;;;;;0.30;0.30;;;13.20;99.90;;;;;;5013895;28;20058;-46
2024/02/19 04:03:18;;;;;;;0.22;0.20;;;13.20;99.90;;;;;;5013487;28;20036;-46
2024/02/19 04:05:44;;;;;;;0.95;0.30;;;13.10;99.90;;;;;;5013319;28;20472;-46
2024/02/19 04:08:09;;;;;;;0.77;0.30;;;13.10;99.90;;;;;;5013175;28;20030;-46
2024/02/19 04:10:35;;;;;;;0.50;0.30;;;13.10;99.90;;;;;;5013212;28;20092;-46
2024/02/19 04:13:01;;;;;;;0.52;0.22;;;13.10;99.90;;;;;;5013510;28;20080;-46
2024/02/19 04:15:27;;;;;;;0.55;0.30;;;13.10;99.90;;;;;;5013218;28;20503;-46
2024/02/19 04:17:53;;;;;;;1.00;0.20;;;13.10;99.90;;;;;;5013093;28;20108;-46
2024/02/19 04:20:19;;;;;;;0.88;0.35;;;13.10;99.90;;;;;;5013122;28;20102;-46
2024/02/19 04:22:44;;;;;;;0.57;0.30;;;13.10;99.90;;;;;;5012961;28;20029;-46
2024/02/19 04:25:10;;;;;;;0.17;0.17;;;13.10;99.90;;;;;;5012990;28;20092;-46
2024/02/19 04:27:36;;;;;;;0.38;0.30;;;13.10;99.90;;;;;;5012989;28;20053;-46
2024/02/19 04:30:01;;;;;;;0.30;0.25;;;13.10;99.90;;;;;;5013042;28;20029;-46
2024/02/19 04:32:27;;;;;;;0.68;0.28;;;13.10;99.90;;;;;;5012998;28;20022;-45
2024/02/19 04:34:55;;;;;;;0.63;0.38;;;13.10;99.90;;;;;;5012846;28;20396;-46
2024/02/19 04:37:21;;;;;;;1.48;0.30;;;13.10;99.90;;;;;;5012632;28;20384;-46
2024/02/19 04:39:47;;;;;;;0.63;0.30;;;13.10;99.90;;;;;;5012721;28;20030;-46
2024/02/19 04:42:12;;;;;;;0.40;0.30;;;13.10;99.90;;;;;;5012749;28;20029;-46
2024/02/19 04:44:39;;;;;;;0.73;0.40;;;13.10;99.90;;;;;;5012718;28;20034;-46
2024/02/19 04:47:05;;;;;;;0.30;0.20;;;13.10;99.90;;;;;;5012647;28;20026;-46
2024/02/19 04:49:30;;;;;;;0.65;0.35;;;13.00;99.90;;;;;;5012435;28;20550;-46
2024/02/19 04:51:56;;;;;;;0.47;0.35;;;13.10;99.90;;;;;;5012470;28;20026;-46
2024/02/19 04:54:22;;;;;;;0.77;0.30;;;13.10;99.90;;;;;;5012504;28;20032;-46
2024/02/19 04:56:47;;;;;;;0.77;0.40;;;13.10;99.90;;;;;;5011116;28;20542;-45
2024/02/19 04:59:13;;;;;;;0.43;0.32;;;13.10;99.90;;;;;;5011016;28;20026;-46
2024/02/19 05:01:39;;;;;;;0.52;0.40;;;13.00;99.90;;;;;;5012141;28;20120;-46
2024/02/19 05:04:05;;;;;;;0.85;0.40;;;13.10;99.90;;;;;;5012362;28;20026;-46
2024/02/19 05:06:30;;;;;;;0.50;0.35;;;13.10;99.90;;;;;;5012066;28;20372;-46
2024/02/19 05:08:56;;;;;;;0.30;0.30;;;13.00;99.90;;;;;;5011969;28;20026;-46
2024/02/19 05:11:22;;;;;;;0.30;0.30;;;13.00;99.90;;;;;;5012325;28;20014;-46
2024/02/19 05:13:47;;;;;;;0.35;0.35;;;13.00;99.90;;;;;;5012304;28;20612;-46
2024/02/19 05:16:13;;;;;;;0.57;0.30;;;13.00;99.90;;;;;;5010722;28;20029;-46
2024/02/19 05:18:39;;;;;;;0.20;0.20;;;13.00;99.90;;;;;;5012067;28;20022;-46
2024/02/19 05:21:06;;;;;;;0.50;0.45;;;13.00;99.90;;;;;;5011807;28;20105;-46
2024/02/19 05:23:32;;;;;;;0.73;0.32;;;13.00;99.90;;;;;;5012036;28;20022;-46
2024/02/19 05:25:58;;;;;;;0.60;0.40;;;13.00;99.90;;;;;;5011776;28;20030;-45
2024/02/19 05:28:24;;;;;;;0.80;0.50;;;13.00;99.90;;;;;;5011878;28;20061;-45
2024/02/19 05:30:49;;;;;;;1.05;0.70;;;13.00;99.90;;;;;;5011943;28;20061;-45
2024/02/19 05:33:18;;;;;;;2.80;0.80;;;13.00;99.90;;;;;;5011866;28;20022;-45
2024/02/19 05:35:44;;;;;;;1.45;0.70;;;13.00;99.90;;;;;;5011610;28;20050;-45
2024/02/19 05:38:11;;;;;;;2.80;0.73;;;13.00;99.90;;;;;;5012259;28;20097;-44
2024/02/19 05:40:38;;;;;;;3.47;0.70;;;12.90;99.90;;;;;;5011651;28;20489;-45
2024/02/19 05:43:04;;;;;;;1.45;0.80;;;12.90;99.90;;;;;;5012044;28;20034;-45
2024/02/19 05:45:30;;;;;;;2.05;0.82;;;12.90;99.90;;;;;;5011983;28;20050;-45
2024/02/19 05:47:56;;;;;;;1.67;0.77;;;13.00;99.90;;;;;;5011551;28;20073;-45
2024/02/19 05:50:22;;;;;;;1.02;0.60;;;12.90;99.90;;;;;;5011459;28;20038;-45
2024/02/19 05:52:47;;;;;;;1.23;0.80;;;12.90;99.90;;;;;;5011644;28;20022;-45
2024/02/19 05:55:13;;;;;;;1.33;0.80;;;12.90;99.90;;;;;;5011535;28;20030;-45
2024/02/19 05:57:38;;;;;;;2.95;0.82;;;12.90;99.90;;;;;;5011519;28;20045;-45
2024/02/19 06:00:05;;;;;;;2.20;0.80;;;12.90;99.90;;;;;;5011556;28;20022;-45
2024/02/19 06:02:31;;;;;;;2.33;0.88;;;12.90;99.90;;;;;;5011545;28;20439;-43
2024/02/19 06:04:57;;;;;;;2.25;0.90;;;12.90;99.90;;;;;;5012741;28;20030;-45
2024/02/19 06:07:22;;;;;;;1.98;0.73;;;12.90;99.90;;;;;;5011818;28;20033;-45
2024/02/19 06:09:48;;;;;;;1.98;0.80;;;12.90;99.90;;;;;;5011398;28;20029;-45
2024/02/19 06:12:14;;;;;;;2.10;0.82;;;12.90;99.90;;;;;;5011385;28;20033;-45
2024/02/19 06:14:39;;;;;;;2.75;1.00;;;12.90;99.90;;;;;;5014338;28;20372;-41
2024/02/19 06:17:05;;;;;;;2.05;0.80;;;12.90;99.90;;;;;;5015312;28;20476;-45
2024/02/19 06:19:31;;;;;;;1.90;0.85;;;12.80;99.90;;;;;;5015313;28;20033;-45
2024/02/19 06:21:56;;;;;;;3.10;1.00;;;12.90;99.90;;;;;;5015398;28;20526;-45
2024/02/19 06:24:22;;;;;;;3.72;1.00;;;12.90;99.90;;;;;;5015239;28;20034;-45
2024/02/19 06:26:48;;;;;;;1.15;0.50;;;12.90;99.90;;;;;;5015294;28;20036;-45
2024/02/19 06:29:14;;;;;;;1.45;0.60;;;12.90;99.90;;;;;;5015135;28;20112;-45
2024/02/19 06:31:39;;;;;;;1.95;0.68;;;12.90;99.90;;;;;;5015227;28;20029;-45
2024/02/19 06:34:05;;;;;;;1.98;0.90;;;12.90;99.90;;;;;;5015202;28;20026;-45
2024/02/19 06:36:31;;;;;;;1.85;0.75;;;12.90;99.90;;;;;;5015041;28;20507;-45
2024/02/19 06:38:57;;;;;;;1.48;0.60;;;12.90;99.90;;;;;;5015058;28;20062;-45
2024/02/19 06:41:22;;;;;;;1.65;0.90;;;12.90;99.90;;;;;;5015060;28;20033;-44
2024/02/19 06:43:48;;;;;;;1.17;0.60;;;12.90;99.90;;;;;;5015611;28;20037;-45
2024/02/19 06:46:15;;;;;;;2.42;0.82;;;12.90;99.90;;;;;;5015152;28;20480;-45
2024/02/19 06:48:41;;;;;;;2.75;0.82;;;12.90;99.90;;;;;;5014725;28;20503;-45
2024/02/19 06:51:07;;;;;;;1.83;0.70;;;12.90;99.90;;;;;;5014748;28;20021;-45
2024/02/19 06:53:33;;;;;;;2.10;0.90;;;12.90;99.90;;;;;;5014807;28;20369;-45
2024/02/19 06:55:58;;;;;;;1.13;0.60;;;12.90;99.90;;;;;;5014625;28;20088;-45
2024/02/19 06:58:24;;;;;;;1.45;0.65;;;13.00;99.90;;;;;;5014514;28;20101;-45
2024/02/19 07:00:49;;;;;;;1.77;0.73;;;13.00;99.90;;;;;;5014501;28;20038;-45
2024/02/19 07:03:15;;;;;;;2.60;0.85;;;13.00;99.90;;;;;;5014614;28;20028;-45
2024/02/19 07:05:42;;;;;;;0.95;0.40;;;13.00;99.90;;;;;;5014576;28;20515;-45
2024/02/19 07:08:08;;;;;;;1.90;0.70;;;13.10;99.90;;;;;;5014527;28;20021;-45
2024/02/19 07:10:33;;;;;;;1.33;0.70;;;13.20;99.90;;;;;;5014359;28;20030;-45
2024/02/19 07:12:59;;;;;;;1.02;0.60;;;13.20;99.90;;;;;;5014362;28;20025;-45
2024/02/19 07:15:25;;;;;;;1.80;0.80;;;13.30;99.90;;;;;;5014765;28;20060;-45
2024/02/19 07:17:50;;;;;;;2.65;0.85;;;13.30;99.90;;;;;;5014425;28;20480;-45
2024/02/19 07:20:16;;;;;;;1.33;0.70;;;13.40;99.90;;;;;;5015202;28;20053;-45
2024/02/19 07:22:42;;;;;;;1.65;0.60;;;13.50;99.90;;;;;;5015115;28;20394;-44
2024/02/19 07:25:08;;;;;;;1.30;0.70;;;13.60;99.90;;;;;;5014395;28;20045;-44
2024/02/19 07:27:33;;;;;;;1.30;0.70;;;13.70;99.90;;;;;;5014162;28;20033;-45
2024/02/19 07:29:59;;;;;;;1.90;0.70;;;13.70;99.90;;;;;;5014095;28;20033;-45
2024/02/19 07:32:25;;;;;;;1.75;0.60;;;13.80;99.90;;;;;;5014149;28;20599;-45
2024/02/19 07:34:50;;;;;;;1.40;0.63;;;13.90;99.90;;;;;;5013890;28;20025;-45
2024/02/19 07:37:16;;;;;;;1.38;0.60;;;13.90;99.90;;;;;;5013989;28;20033;-45
2024/02/19 07:39:42;;;;;;;2.42;0.70;;;14.00;99.90;;;;;;5013837;28;20022;-44
2024/02/19 07:42:09;;;;;;;2.03;0.43;;;14.10;99.90;;;;;;5013945;28;20085;-45
2024/02/19 07:44:34;;;;;;;1.38;0.65;;;14.20;99.90;;;;;;5013784;28;20030;-45
2024/02/19 07:47:02;;;;;;;1.13;0.50;;;14.20;99.80;;;;;;5013665;28;20361;-44
2024/02/19 07:49:27;;;;;;;0.82;0.45;;;14.30;99.70;;;;;;5013604;28;20222;-45
2024/02/19 07:51:53;;;;;;;1.00;0.50;;;14.30;99.50;;;;;;5013718;28;20033;-45
2024/02/19 07:54:18;;;;;;;1.83;0.63;;;14.40;99.40;;;;;;5013552;28;20022;-45
2024/02/19 07:56:44;;;;;;;2.20;0.68;;;14.50;99.10;;;;;;5013200;28;20026;-45
2024/02/19 07:59:10;;;;;;;2.08;0.70;;;14.50;98.70;;;;;;5012207;28;20064;-45
2024/02/19 08:01:35;;;;;;;4.30;0.90;;;14.50;98.50;;;;;;5013493;28;20030;-45
2024/02/19 08:04:01;;;;;;;2.47;0.80;;;14.60;98.40;;;;;;5013404;28;20030;-45
2024/02/19 08:06:28;;;;;;;4.32;1.00;;;14.60;98.40;;;;;;5013384;28;20052;-45
2024/02/19 08:08:53;;;;;;;1.60;0.60;;;14.70;98.40;;;;;;5013190;28;20113;-45
2024/02/19 08:11:20;;;;;;;1.77;0.70;;;14.80;98.40;;;;;;5013385;28;20105;-45
2024/02/19 08:13:45;;;;;;;1.23;0.57;;;14.80;98.40;;;;;;5013378;28;20022;-45
2024/02/19 08:16:11;;;;;;;1.20;0.73;;;14.90;98.40;;;;;;5013174;28;20022;-44
2024/02/19 08:18:37;;;;;;;3.08;0.75;;;14.90;98.30;;;;;;5013056;28;20033;-45
2024/02/19 08:21:03;;;;;;;1.42;0.60;;;15.00;98.30;;;;;;5013242;28;20156;-45
2024/02/19 08:23:29;;;;;;;1.58;0.80;;;15.10;98.30;;;;;;5012979;28;20361;-45
2024/02/19 08:25:55;;;;;;;3.10;0.82;;;15.10;98.20;;;;;;5012911;28;20037;-45
2024/02/19 08:28:20;;;;;;;3.40;0.70;;;15.20;98.20;;;;;;5013097;28;20049;-44
2024/02/19 08:30:46;;;;;;;1.92;0.68;;;15.30;98.20;;;;;;5012845;28;20029;-45
2024/02/19 08:33:12;;;;;;;2.42;0.82;;;15.30;98.10;;;;;;5012924;28;20384;-45
2024/02/19 08:35:37;;;;;;;2.80;0.68;;;15.30;98.10;;;;;;5012588;28;20030;-45
2024/02/19 08:38:04;;;;;;;2.38;0.70;;;15.40;98.00;;;;;;5012360;28;20030;-44
2024/02/19 08:40:30;;;;;;;0.95;0.70;;;15.50;97.90;;;;;;5012750;28;20033;-46
2024/02/19 08:42:56;;;;;;;1.73;0.60;;;15.50;97.90;;;;;;5013064;28;20041;-45
2024/02/19 08:45:22;;;;;;;1.45;0.60;;;15.50;97.70;;;;;;5012665;28;20029;-45
2024/02/19 08:47:47;;;;;;;1.52;0.47;;;15.60;97.80;;;;;;5011227;28;20053;-45
2024/02/19 08:50:13;;;;;;;1.13;0.50;;;15.70;97.70;;;;;;5012411;28;20072;-43
2024/02/19 08:52:39;;;;;;;1.70;0.75;;;15.70;97.70;;;;;;5012513;28;20053;-45
2024/02/19 08:55:05;;;;;;;0.82;0.40;;;15.80;97.60;;;;;;5012688;28;20042;-45
2024/02/19 08:57:30;;;;;;;1.65;0.50;;;15.80;97.50;;;;;;5012604;28;20030;-45
2024/02/19 08:59:56;;;;;;;0.82;0.40;;;15.90;97.50;;;;;;5012413;28;20068;-45
2024/02/19 09:02:21;;;;;;;0.82;0.40;;;15.90;97.40;;;;;;5012377;28;20403;-45
2024/02/19 09:04:47;;;;;;;1.25;0.40;;;16.00;97.30;;;;;;5012249;28;20088;-43
2024/02/19 09:07:13;;;;;;;1.83;0.60;;;16.00;97.30;;;;;;5012267;28;20022;-45
2024/02/19 09:09:45;;;;;;;0.85;0.55;;;16.00;97.20;;;;;;5012196;28;20145;-45
2024/02/19 09:12:11;;;;;;;0.68;0.32;;;16.10;97.20;;;;;;5012357;28;20102;-45
2024/02/19 09:14:37;;;;;;;1.58;0.40;;;16.10;97.10;;;;;;5012196;28;20030;-45
2024/02/19 09:17:04;;;;;;;1.45;0.60;;;16.20;97.10;;;;;;5012111;28;20028;-45
2024/02/19 09:19:31;;;;;;;0.95;0.50;;;16.20;97.00;;;;;;5012033;28;20488;-45
2024/02/19 09:21:57;;;;;;;1.08;0.60;;;16.30;97.00;;;;;;5012006;28;20423;-45
2024/02/19 09:24:23;;;;;;;1.40;0.57;;;16.30;97.00;;;;;;5011938;28;20487;-45
2024/02/19 09:26:48;;;;;;;1.08;0.50;;;16.40;96.90;;;;;;5011905;28;20030;-45
2024/02/19 09:29:15;;;;;;;0.98;0.40;;;16.40;96.90;;;;;;5011794;28;20029;-44
2024/02/19 09:31:40;;;;;;;0.80;0.40;;;16.40;96.80;;;;;;5011886;28;20022;-45
2024/02/19 09:34:06;;;;;;;2.22;0.68;;;16.50;96.80;;;;;;5012263;28;20104;-45
2024/02/19 09:36:32;;;;;;;1.10;0.50;;;16.50;96.70;;;;;;5011633;28;20022;-45
2024/02/19 09:38:57;;;;;;;2.10;0.75;;;16.50;96.60;;;;;;5012192;28;20026;-43
2024/02/19 09:41:23;;;;;;;1.25;0.60;;;16.60;96.60;;;;;;5011860;28;20084;-45
2024/02/19 09:43:51;;;;;;;2.15;0.60;;;16.60;96.50;;;;;;5011991;28;20040;-45
2024/02/19 09:46:19;;;;;;;1.13;0.32;;;16.70;96.50;;;;;;5011644;28;20053;-45
2024/02/19 09:48:49;;;;;;;1.20;0.43;;;16.70;96.40;;;;;;5010724;28;20026;-45
2024/02/19 09:51:20;;;;;;;1.67;0.63;;;16.70;96.30;;;;;;5011831;28;20105;-44
2024/02/19 09:53:51;;;;;;;1.35;0.50;;;16.80;96.30;;;;;;5011824;28;20101;-45
2024/02/19 09:56:22;;;;;;;1.98;0.50;;;16.80;96.20;;;;;;5011539;28;20477;-44
2024/02/19 09:58:48;;;;;;;0.90;0.60;;;16.80;96.20;;;;;;5011571;28;20072;-44
2024/02/19 10:01:14;;;;;;;0.68;0.40;;;16.90;96.10;;;;;;5011545;28;20049;-42
2024/02/19 10:03:40;;;;;;;0.77;0.45;;;16.90;96.00;;;;;;5011537;28;20030;-45
2024/02/19 10:06:07;;;;;;;1.13;0.50;;;16.90;96.00;;;;;;5011444;28;20037;-44
2024/02/19 10:08:33;;;;;;;1.40;0.47;;;17.00;95.90;;;;;;5011367;28;20026;-43
2024/02/19 10:11:03;;;;;;;1.25;0.50;;;17.00;95.90;;;;;;5011396;28;20022;-44
2024/02/19 10:13:31;;;;;;;1.13;0.50;;;17.00;95.80;;;;;;5011626;28;20018;-44
2024/02/19 10:15:57;;;;;;;0.82;0.40;;;17.10;95.80;;;;;;5011240;28;20029;-46
2024/02/19 10:18:22;;;;;;;1.65;0.68;;;17.10;95.70;;;;;;5012573;28;20120;-45
2024/02/19 10:20:52;;;;;;;1.20;0.55;;;17.10;95.70;;;;;;5012237;28;20097;-45
2024/02/19 10:23:19;;;;;;;0.77;0.40;;;17.10;95.60;;;;;;5011854;28;20387;-44
2024/02/19 10:25:45;;;;;;;0.50;0.40;;;17.10;95.60;;;;;;5011383;28;20038;-45
2024/02/19 10:28:10;;;;;;;1.20;0.50;;;17.10;95.50;;;;;;5011292;28;20468;-44
2024/02/19 10:30:36;;;;;;;1.70;0.68;;;17.20;95.50;;;;;;5010999;28;20068;-44
2024/02/19 10:33:02;;;;;;;0.80;0.50;;;17.20;95.40;;;;;;5011135;28;20046;-44
2024/02/19 10:35:28;;;;;;;0.73;0.40;;;17.20;95.40;;;;;;5011293;28;20024;-44
2024/02/19 10:37:58;;;;;;;0.90;0.50;;;17.30;95.40;;;;;;5011320;28;20369;-44
2024/02/19 10:40:24;;;;;;;1.10;0.40;;;17.30;95.30;;;;;;5011108;28;20029;-45
2024/02/19 10:42:50;;;;;;;1.20;0.47;;;17.30;95.30;;;;;;5011192;28;20026;-44
2024/02/19 10:45:23;;;;;;;1.73;0.45;;;17.30;95.20;;;;;;5010903;28;20018;-45
2024/02/19 10:47:49;;;;;;;0.68;0.22;;;17.30;95.20;;;;;;5011336;28;20030;-44
2024/02/19 10:50:19;;;;;;;1.58;0.50;;;17.30;95.10;;;;;;5011062;28;20053;-44
2024/02/19 10:52:45;;;;;;;1.80;0.50;;;17.30;95.10;;;;;;5011273;28;20030;-45
2024/02/19 10:55:15;;;;;;;1.00;0.40;;;17.40;95.10;;;;;;5011025;28;20032;-44
2024/02/19 10:57:59;;;;;;;1.52;0.40;;;17.40;95.10;;;;;;5010816;28;20369;-45
2024/02/19 11:00:27;;;;;;;0.60;0.30;;;17.40;95.00;;;;;;5013264;28;20108;-45
2024/02/19 11:03:06;;;;;;;1.23;0.43;;;17.40;95.00;;;;;;5014607;28;20607;-44
2024/02/19 11:05:45;;;;;;;1.17;0.35;;;17.40;95.00;;;;;;5014486;28;20030;-45
2024/02/19 11:08:23;;;;;;;0.80;0.50;;;17.50;95.00;;;;;;5014390;28;20029;-45
2024/02/19 11:10:52;;;;;;;0.75;0.30;;;17.50;94.90;;;;;;5014439;28;20036;-44
2024/02/19 11:13:20;;;;;;;1.05;0.40;;;17.50;94.90;;;;;;5014447;28;20324;-45
2024/02/19 11:15:46;;;;;;;1.08;0.40;;;17.50;94.90;;;;;;5014382;28;20051;-45
2024/02/19 11:18:19;;;;;;;1.58;0.40;;;17.50;94.80;;;;;;5014317;28;20112;-45
2024/02/19 11:20:45;;;;;;;1.52;0.60;;;17.60;94.80;;;;;;5014095;28;20394;-45
2024/02/19 11:23:14;;;;;;;0.90;0.40;;;17.60;94.80;;;;;;5014441;28;20064;-45
2024/02/19 11:25:40;;;;;;;2.05;0.88;;;17.60;94.80;;;;;;5014056;28;20057;-45
2024/02/19 11:28:06;;;;;;;3.25;1.08;;;17.60;94.50;;;;;;5014080;28;20030;-45
2024/02/19 11:30:31;;;;;;;4.55;1.08;;;17.60;94.20;;;;;;5013983;28;20476;-45
2024/02/19 11:33:01;;;;;;;3.50;0.90;;;17.60;94.00;;;;;;5014054;28;20030;-45
2024/02/19 11:35:27;;;;;;;4.38;1.10;;;17.60;93.90;;;;;;5013867;28;20575;-44
2024/02/19 11:37:53;;;;;;;2.97;0.95;;;17.70;93.90;;;;;;5013956;28;20061;-45
2024/02/19 11:40:32;;;;;;;2.78;1.00;;;17.70;93.90;;;;;;5013887;28;20026;-45
2024/02/19 11:43:01;;;;;;;2.70;0.80;;;17.70;93.80;;;;;;5013970;28;20030;-45
2024/02/19 11:45:31;;;;;;;2.08;0.80;;;17.70;93.80;;;;;;5014565;28;20052;-41
2024/02/19 11:47:57;;;;;;;2.70;1.00;;;17.80;93.80;;;;;;5013779;28;20352;-45
2024/02/19 11:50:29;;;;;;;2.75;1.02;;;17.80;93.70;;;;;;5013701;28;20650;-45
2024/02/19 11:52:58;;;;;;;2.55;1.00;;;17.80;93.60;;;;;;5013710;28;20048;-45
2024/02/19 11:55:25;;;;;;;3.10;0.98;;;17.90;93.60;;;;;;5013652;28;20018;-43
2024/02/19 11:57:52;;;;;;;3.25;0.93;;;17.90;93.60;;;;;;5013533;28;20030;-45
2024/02/19 12:00:18;;;;;;;2.13;0.70;;;17.90;93.60;;;;;;5013432;28;20117;-44
2024/02/19 12:02:48;;;;;;;1.95;0.98;;;17.90;93.50;;;;;;5013582;28;20100;-44
2024/02/19 12:05:16;;;;;;;1.77;1.00;;;17.90;93.50;;;;;;5013432;28;20025;-44
2024/02/19 12:07:43;;;;;;;2.38;1.10;;;17.90;93.50;;;;;;5013276;28;20488;-45
2024/02/19 12:10:12;;;;;;;3.63;1.00;;;17.90;93.50;;;;;;5013590;28;20029;-45
2024/02/19 12:12:39;;;;;;;2.42;0.90;;;18.00;93.50;;;;;;5012430;28;20026;-45
2024/02/19 12:15:10;;;;;;;2.15;1.02;;;18.00;93.40;;;;;;5013233;28;20116;-44
2024/02/19 12:17:36;;;;;;;2.05;0.68;;;17.90;93.40;;;;;;5013222;28;20379;-45
2024/02/19 12:20:03;;;;;;;2.97;1.08;;;18.00;93.40;;;;;;5013157;28;20034;-45
2024/02/19 12:22:29;;;;;;;2.17;0.90;;;18.00;93.40;;;;;;5013229;28;20104;-44
2024/02/19 12:24:54;;;;;;;2.63;1.00;;;18.00;93.30;;;;;;5013237;28;20034;-45
2024/02/19 12:27:20;;;;;;;1.33;0.73;;;17.90;93.30;;;;;;5012928;28;20034;-45
2024/02/19 12:29:46;;;;;;;2.95;1.13;;;18.00;93.30;;;;;;5012879;28;20022;-45
2024/02/19 12:32:11;;;;;;;2.33;0.90;;;18.00;93.30;;;;;;5012976;28;20026;-45
2024/02/19 12:34:40;;;;;;;3.20;1.17;;;18.00;93.30;;;;;;5012960;28;20034;-45
2024/02/19 12:37:06;;;;;;;1.55;0.90;;;18.00;93.30;;;;;;5012781;28;20022;-45
2024/02/19 12:39:31;;;;;;;2.33;0.80;;;18.00;93.30;;;;;;5012800;28;20033;-45
2024/02/19 12:41:57;;;;;;;2.35;0.80;;;18.00;93.30;;;;;;5012637;28;20388;-45
2024/02/19 12:44:23;;;;;;;2.90;1.05;;;18.00;93.30;;;;;;5012783;28;20037;-43